createdAt,value
2022-08-30T00:00:00.454Z,95356.16
2022-08-30T00:02:30.372Z,95351.66
2022-08-30T00:05:01.669Z,95351.91
2022-08-30T00:07:30.925Z,95353.81
2022-08-30T00:09:59.346Z,95347.03
2022-08-30T00:12:27.896Z,95355.69
2022-08-30T00:14:56.422Z,95352.13
2022-08-30T00:17:24.846Z,95353.81
2022-08-30T00:19:56.087Z,95354.59
2022-08-30T00:22:24.708Z,95338.84
2022-08-30T00:24:53.145Z,95363.38
2022-08-30T00:27:21.476Z,95361.78
2022-08-30T00:29:49.878Z,95355.03
2022-08-30T00:32:21.465Z,95353.69
2022-08-30T00:34:50.046Z,95358.88
2022-08-30T00:37:20.754Z,95371.44
2022-08-30T00:39:49.757Z,95369.22
2022-08-30T00:42:19.328Z,95366.94
2022-08-30T00:44:49.150Z,95371.13
2022-08-30T00:47:19.109Z,95369.41
2022-08-30T00:49:51.234Z,95367.59
2022-08-30T00:52:23.626Z,95370.78
2022-08-30T00:54:54.067Z,95367.50
2022-08-30T00:57:22.580Z,95360.09
2022-08-30T00:59:51.774Z,95332.78
2022-08-30T01:02:23.672Z,95368.09
2022-08-30T01:04:53.039Z,95356.84
2022-08-30T01:07:22.852Z,95361.09
2022-08-30T01:09:51.509Z,95366.03
2022-08-30T01:12:20.437Z,95368.22
2022-08-30T01:14:49.037Z,95367.81
2022-08-30T01:17:18.679Z,95369.19
2022-08-30T01:19:54.525Z,95368.63
2022-08-30T01:22:30.150Z,95371.75
2022-08-30T01:25:01.487Z,95364.09
2022-08-30T01:27:31.245Z,95364.00
2022-08-30T01:30:00.583Z,95353.88
2022-08-30T01:32:30.606Z,95320.66
2022-08-30T01:34:59.609Z,95358.47
2022-08-30T01:37:31.732Z,95363.88
2022-08-30T01:40:01.827Z,95357.47
2022-08-30T01:42:30.285Z,95351.41
2022-08-30T01:44:58.747Z,95336.84
2022-08-30T01:47:27.727Z,95335.81
2022-08-30T01:49:56.041Z,95347.06
2022-08-30T01:52:28.037Z,95352.56
2022-08-30T01:54:56.420Z,95350.22
2022-08-30T01:57:28.371Z,95352.16
2022-08-30T01:59:56.894Z,95347.44
2022-08-30T02:02:29.053Z,95348.19
2022-08-30T02:05:07.859Z,95349.44
2022-08-30T02:07:36.266Z,95350.09
2022-08-30T02:10:05.863Z,95356.72
2022-08-30T02:12:35.764Z,95357.63
2022-08-30T02:15:04.378Z,95352.22
2022-08-30T02:17:33.277Z,95355.38
2022-08-30T02:20:01.601Z,95357.81
2022-08-30T02:22:30.132Z,95356.22
2022-08-30T02:24:58.472Z,95355.41
2022-08-30T02:27:27.469Z,95370.38
2022-08-30T02:29:57.397Z,95365.34
2022-08-30T02:32:25.784Z,95368.91
2022-08-30T02:34:54.949Z,95360.00
2022-08-30T02:37:23.498Z,95368.75
2022-08-30T02:39:51.931Z,95371.31
2022-08-30T02:42:20.426Z,95375.84
2022-08-30T02:44:48.836Z,95377.69
2022-08-30T02:47:18.637Z,95367.50
2022-08-30T02:49:47.045Z,95364.66
2022-08-30T02:52:15.518Z,95374.63
2022-08-30T02:54:43.867Z,95375.09
2022-08-30T02:57:20.332Z,95370.75
2022-08-30T02:59:49.082Z,95361.63
2022-08-30T03:02:20.203Z,95299.22
2022-08-30T03:04:49.084Z,95377.78
2022-08-30T03:07:18.628Z,95381.09
2022-08-30T03:09:47.541Z,95385.09
2022-08-30T03:12:15.990Z,95379.41
2022-08-30T03:14:44.516Z,95365.78
2022-08-30T03:17:15.751Z,95388.47
2022-08-30T03:19:47.332Z,95382.66
2022-08-30T03:22:15.772Z,95390.72
2022-08-30T03:24:44.179Z,95383.00
2022-08-30T03:27:12.625Z,95389.88
2022-08-30T03:29:41.047Z,95384.44
2022-08-30T03:32:10.598Z,95375.84
2022-08-30T03:34:39.045Z,95377.69
2022-08-30T03:37:08.858Z,95381.91
2022-08-30T03:39:37.796Z,95391.72
2022-08-30T03:42:06.646Z,95391.72
2022-08-30T03:44:35.291Z,95389.94
2022-08-30T03:47:05.327Z,95392.97
2022-08-30T03:49:33.773Z,95394.72
2022-08-30T03:52:02.253Z,95398.56
2022-08-30T03:54:32.508Z,95396.78
2022-08-30T03:57:01.121Z,95398.56
2022-08-30T03:59:29.611Z,95408.34
2022-08-30T04:01:59.336Z,95405.53
2022-08-30T04:04:27.801Z,95406.75
2022-08-30T04:06:56.585Z,95408.31
2022-08-30T04:09:24.939Z,95412.75
2022-08-30T04:11:54.772Z,95412.69
2022-08-30T04:14:23.526Z,95421.97
2022-08-30T04:16:52.078Z,95419.75
2022-08-30T04:19:20.524Z,95422.88
2022-08-30T04:21:49.053Z,95428.28
2022-08-30T04:24:17.722Z,95433.84
2022-08-30T04:26:46.149Z,95429.88
2022-08-30T04:29:17.932Z,95434.84
2022-08-30T04:31:46.695Z,95432.38
2022-08-30T04:34:15.703Z,95433.28
2022-08-30T04:36:48.118Z,95437.88
2022-08-30T04:39:16.864Z,95438.66
2022-08-30T04:41:45.293Z,95438.91
2022-08-30T04:44:14.242Z,95429.88
2022-08-30T04:46:49.383Z,95391.78
2022-08-30T04:49:17.796Z,95444.31
2022-08-30T04:51:46.215Z,95437.09
2022-08-30T04:54:14.662Z,95448.22
2022-08-30T04:56:43.830Z,95442.63
2022-08-30T04:59:12.322Z,95449.44
2022-08-30T05:01:45.049Z,95443.34
2022-08-30T05:04:15.936Z,95432.41
2022-08-30T05:06:44.402Z,95424.34
2022-08-30T05:09:13.126Z,95435.94
2022-08-30T05:11:43.432Z,95431.56
2022-08-30T05:14:12.801Z,95435.13
2022-08-30T05:16:42.359Z,95431.34
2022-08-30T05:19:11.261Z,95431.63
2022-08-30T05:21:41.846Z,95427.72
2022-08-30T05:24:12.909Z,95426.31
2022-08-30T05:26:41.318Z,95433.59
2022-08-30T05:29:09.825Z,95366.13
2022-08-30T05:31:40.307Z,95451.19
2022-08-30T05:34:08.807Z,95434.72
2022-08-30T05:36:39.316Z,95439.31
2022-08-30T05:39:10.960Z,95446.97
2022-08-30T05:41:42.857Z,95400.78
2022-08-30T05:44:12.839Z,95448.97
2022-08-30T05:46:45.811Z,95439.50
2022-08-30T05:49:14.571Z,95441.28
2022-08-30T05:51:45.206Z,95447.03
2022-08-30T05:54:30.158Z,95427.56
2022-08-30T05:56:58.538Z,95395.63
2022-08-30T05:59:27.489Z,95388.06
2022-08-30T06:01:59.309Z,95428.56
2022-08-30T06:04:28.279Z,95389.34
2022-08-30T06:06:56.964Z,95428.00
2022-08-30T06:09:27.187Z,95321.22
2022-08-30T06:11:56.234Z,95420.03
2022-08-30T06:14:24.800Z,95423.41
2022-08-30T06:16:53.903Z,95423.03
2022-08-30T06:19:23.340Z,95430.50
2022-08-30T06:21:52.443Z,95416.91
2022-08-30T06:24:35.772Z,95423.16
2022-08-30T06:27:11.207Z,95419.63
2022-08-30T06:29:39.682Z,95421.38
2022-08-30T06:32:08.095Z,95415.97
2022-08-30T06:34:36.542Z,95426.41
2022-08-30T06:37:05.017Z,95424.66
2022-08-30T06:39:33.389Z,95423.59
2022-08-30T06:42:01.841Z,95425.47
2022-08-30T06:44:31.678Z,95420.09
2022-08-30T06:47:00.342Z,95417.97
2022-08-30T06:49:28.776Z,95414.56
2022-08-30T06:51:57.157Z,95412.16
2022-08-30T06:54:25.596Z,95412.00
2022-08-30T06:56:58.461Z,95411.25
2022-08-30T06:59:28.612Z,95409.06
2022-08-30T07:01:58.710Z,95397.06
2022-08-30T07:04:27.705Z,95408.06
2022-08-30T07:06:56.207Z,95405.09
2022-08-30T07:09:24.968Z,95353.56
2022-08-30T07:11:54.553Z,95410.81
2022-08-30T07:14:23.168Z,95406.66
2022-08-30T07:16:52.359Z,95405.38
2022-08-30T07:19:22.961Z,95405.28
2022-08-30T07:21:52.025Z,95388.59
2022-08-30T07:24:21.498Z,95366.03
2022-08-30T07:26:52.267Z,95396.22
2022-08-30T07:29:21.946Z,95393.38
2022-08-30T07:31:50.789Z,95403.53
2022-08-30T07:34:22.407Z,95395.34
2022-08-30T07:36:54.540Z,95376.97
2022-08-30T07:39:22.973Z,95401.25
2022-08-30T07:41:51.773Z,95389.53
2022-08-30T07:44:23.243Z,95334.88
2022-08-30T07:46:53.722Z,95388.34
2022-08-30T07:49:22.124Z,95391.00
2022-08-30T07:51:50.631Z,95365.22
2022-08-30T07:54:20.441Z,95382.88
2022-08-30T07:56:48.937Z,95379.47
2022-08-30T07:59:17.544Z,95376.38
2022-08-30T08:01:46.008Z,95375.72
2022-08-30T08:04:14.409Z,95370.47
2022-08-30T08:06:45.372Z,95357.63
2022-08-30T08:09:13.836Z,95371.81
2022-08-30T08:11:43.627Z,95364.13
2022-08-30T08:14:12.544Z,95355.03
2022-08-30T08:16:42.467Z,95352.28
2022-08-30T08:19:11.330Z,95357.75
2022-08-30T08:21:40.041Z,95340.72
2022-08-30T08:24:09.343Z,95344.91
2022-08-30T08:26:40.998Z,95341.16
2022-08-30T08:29:15.358Z,95350.16
2022-08-30T08:31:46.025Z,95347.25
2022-08-30T08:34:15.088Z,95345.19
2022-08-30T08:36:43.510Z,95341.50
2022-08-30T08:39:12.001Z,95344.06
2022-08-30T08:41:55.728Z,95337.50
2022-08-30T08:47:27.633Z,95333.75
2022-08-30T08:49:59.920Z,95295.03
2022-08-30T08:52:49.249Z,95333.41
2022-08-30T08:55:22.322Z,95323.97
2022-08-30T08:57:52.597Z,95320.13
2022-08-30T09:00:22.679Z,95318.28
2022-08-30T09:02:58.696Z,95313.25
2022-08-30T09:05:30.646Z,95304.41
2022-08-30T09:08:06.582Z,95313.81
2022-08-30T09:10:50.534Z,95313.09
2022-08-30T09:13:22.743Z,95303.41
2022-08-30T09:15:54.881Z,95298.97
2022-08-30T09:21:33.592Z,95250.66
2022-08-30T09:24:07.431Z,95279.47
2022-08-30T09:26:37.907Z,95286.34
2022-08-30T09:29:17.564Z,95287.31
2022-08-30T09:32:01.287Z,95231.16
2022-08-30T09:34:38.834Z,95289.53
2022-08-30T09:37:26.768Z,95280.53
2022-08-30T09:39:55.516Z,95268.53
2022-08-30T09:42:28.956Z,95278.72
2022-08-30T09:45:10.687Z,95286.59
2022-08-30T09:47:44.218Z,95289.25
2022-08-30T09:50:15.451Z,95275.53
2022-08-30T09:52:57.744Z,95275.59
2022-08-30T09:55:39.123Z,95266.03
2022-08-30T09:58:16.112Z,95274.78
2022-08-30T10:00:53.041Z,95221.47
2022-08-30T10:03:40.659Z,95272.41
2022-08-30T10:06:20.046Z,95278.34
2022-08-30T10:08:58.767Z,95270.00
2022-08-30T10:11:33.816Z,95268.97
2022-08-30T10:14:25.301Z,95273.91
2022-08-30T10:17:02.067Z,95263.41
2022-08-30T10:19:55.126Z,95261.22
2022-08-30T10:22:30.764Z,95273.19
2022-08-30T10:25:06.577Z,95268.63
2022-08-30T10:27:42.784Z,95268.56
2022-08-30T10:30:15.096Z,95229.50
2022-08-30T10:32:49.710Z,95280.22
2022-08-30T10:35:23.036Z,95282.06
2022-08-30T10:37:57.574Z,95292.50
2022-08-30T10:40:48.607Z,95293.13
2022-08-30T10:43:25.090Z,95288.59
2022-08-30T10:45:59.249Z,95296.84
2022-08-30T10:48:32.362Z,95289.50
2022-08-30T10:51:10.517Z,95288.31
2022-08-30T10:53:44.956Z,95293.03
2022-08-30T10:56:18.773Z,95283.53
2022-08-30T10:58:47.924Z,95281.19
2022-08-30T11:01:38.056Z,95251.13
2022-08-30T11:05:00.757Z,95253.81
2022-08-30T11:07:40.057Z,95240.41
2022-08-30T11:10:28.738Z,95245.19
2022-08-30T11:13:03.765Z,95239.66
2022-08-30T11:15:35.831Z,95235.31
2022-08-30T11:18:13.061Z,95230.63
2022-08-30T11:20:44.886Z,95237.94
2022-08-30T11:23:36.231Z,95251.66
2022-08-30T11:26:07.501Z,95209.25
2022-08-30T11:29:05.220Z,95241.56
2022-08-30T11:31:45.235Z,95208.06
2022-08-30T11:34:56.248Z,95239.84
2022-08-30T11:37:37.527Z,95234.28
2022-08-30T11:40:32.256Z,95241.16
2022-08-30T11:43:40.363Z,95231.16
2022-08-30T11:46:17.096Z,95231.91
2022-08-30T11:48:53.863Z,95234.75
2022-08-30T11:52:23.685Z,95240.75
2022-08-30T11:54:56.526Z,95246.34
2022-08-30T11:57:32.824Z,95254.44
2022-08-30T12:00:09.264Z,95256.22
2022-08-30T12:02:51.231Z,95270.78
2022-08-30T12:05:57.337Z,95274.34
2022-08-30T12:08:57.903Z,95295.22
2022-08-30T12:12:02.528Z,95283.16
2022-08-30T12:14:44.777Z,95290.25
2022-08-30T12:18:07.568Z,95278.16
2022-08-30T12:20:47.324Z,95294.59
2022-08-30T12:23:21.571Z,95281.41
2022-08-30T12:25:50.096Z,95284.53
2022-08-30T12:28:24.198Z,95257.19
2022-08-30T12:30:54.843Z,95276.31
2022-08-30T12:33:36.543Z,95276.28
2022-08-30T12:36:12.681Z,95285.69
2022-08-30T12:38:42.492Z,95288.84
2022-08-30T12:41:21.158Z,95303.25
2022-08-30T12:43:52.526Z,95304.81
2022-08-30T12:46:23.586Z,95302.09
2022-08-30T12:48:52.510Z,95309.88
2022-08-30T12:51:36.937Z,95313.25
2022-08-30T12:54:15.418Z,95301.84
2022-08-30T12:56:52.496Z,95308.44
2022-08-30T13:00:01.625Z,95301.03
2022-08-30T13:02:44.953Z,95307.31
2022-08-30T13:05:30.198Z,95309.41
2022-08-30T13:08:11.726Z,95284.56
2022-08-30T13:10:51.691Z,95316.34
2022-08-30T13:13:39.858Z,95317.13
2022-08-30T13:16:14.279Z,95318.28
2022-08-30T13:18:44.116Z,95323.19
2022-08-30T13:21:23.363Z,95314.13
2022-08-30T13:23:58.580Z,95322.44
2022-08-30T13:26:28.799Z,95319.84
2022-08-30T13:28:58.972Z,95325.09
2022-08-30T13:31:30.113Z,95305.44
2022-08-30T13:34:02.569Z,95320.22
2022-08-30T13:36:33.437Z,95326.06
2022-08-30T13:39:02.885Z,95324.25
2022-08-30T13:41:34.375Z,95322.91
2022-08-30T13:44:13.472Z,95318.91
2022-08-30T13:46:48.588Z,95305.16
2022-08-30T13:52:22.034Z,95121.09
2022-08-30T13:54:52.015Z,95281.16
2022-08-30T14:00:17.507Z,95272.22
2022-08-30T14:02:53.824Z,95309.97
2022-08-30T14:11:05.204Z,95310.53
2022-08-30T14:13:34.066Z,95305.28
2022-08-30T14:18:56.551Z,95298.06
2022-08-30T14:21:26.751Z,95288.41
2022-08-30T14:23:56.076Z,95302.94
2022-08-30T14:26:33.275Z,95276.34
2022-08-30T14:29:03.382Z,95302.63
2022-08-30T14:31:32.705Z,95221.28
2022-08-30T14:34:03.309Z,95290.06
2022-08-30T14:36:34.875Z,95277.47
2022-08-30T14:39:08.135Z,95305.09
2022-08-30T14:41:43.582Z,95258.75
2022-08-30T14:44:12.938Z,95222.00
2022-08-30T14:46:41.780Z,95192.09
2022-08-30T14:49:11.689Z,95306.72
2022-08-30T14:51:42.128Z,95336.50
2022-08-30T14:54:11.172Z,95277.00
2022-08-30T14:56:40.045Z,95297.47
2022-08-30T14:59:08.938Z,95332.59
2022-08-30T15:01:39.031Z,95267.31
2022-08-30T15:04:08.321Z,95350.78
2022-08-30T15:06:38.163Z,95360.50
2022-08-30T15:09:10.173Z,95360.63
2022-08-30T15:11:39.244Z,95367.25
2022-08-30T15:14:08.019Z,95358.56
2022-08-30T15:16:37.885Z,95350.28
2022-08-30T15:19:09.009Z,95356.06
2022-08-30T15:21:40.712Z,95364.63
2022-08-30T15:24:14.956Z,95370.03
2022-08-30T15:26:45.091Z,95376.72
2022-08-30T15:29:15.372Z,95381.69
2022-08-30T15:31:45.302Z,95383.28
2022-08-30T15:34:19.962Z,95401.53
2022-08-30T15:36:50.172Z,95395.19
2022-08-30T15:39:21.204Z,95400.31
2022-08-30T15:41:55.967Z,95390.97
2022-08-30T15:44:27.003Z,95409.06
2022-08-30T15:46:55.647Z,95399.84
2022-08-30T15:49:26.025Z,95371.72
2022-08-30T15:51:54.746Z,95365.13
2022-08-30T15:54:25.400Z,95348.97
2022-08-30T15:56:59.557Z,95353.06
2022-08-30T15:59:28.830Z,95351.06
2022-08-30T16:01:58.017Z,95347.38
2022-08-30T16:04:26.720Z,95337.53
2022-08-30T16:06:55.121Z,95334.66
2022-08-30T16:09:32.398Z,95330.56
2022-08-30T16:12:01.847Z,95329.22
2022-08-30T16:14:30.403Z,95344.28
2022-08-30T16:16:59.951Z,95330.69
2022-08-30T16:19:28.987Z,95326.56
2022-08-30T16:21:57.985Z,95337.78
2022-08-30T16:24:28.119Z,95334.28
2022-08-30T16:26:56.940Z,95326.44
2022-08-30T16:29:25.417Z,95328.66
2022-08-30T16:31:54.191Z,95309.91
2022-08-30T16:34:22.976Z,95287.25
2022-08-30T16:36:51.465Z,95304.94
2022-08-30T16:39:20.330Z,95296.66
2022-08-30T16:41:50.309Z,95301.53
2022-08-30T16:44:19.220Z,95307.41
2022-08-30T16:46:52.984Z,95296.38
2022-08-30T16:49:23.124Z,95311.66
2022-08-30T16:51:53.327Z,95309.84
2022-08-30T16:54:21.703Z,95242.38
2022-08-30T16:56:51.864Z,95294.84
2022-08-30T16:59:20.379Z,95307.44
2022-08-30T17:01:49.150Z,95306.22
2022-08-30T17:04:19.494Z,95312.75
2022-08-30T17:06:49.939Z,95316.41
2022-08-30T17:09:19.981Z,95261.34
2022-08-30T17:11:49.005Z,95333.25
2022-08-30T17:14:28.005Z,95327.31
2022-08-30T17:17:00.671Z,95319.41
2022-08-30T17:19:29.417Z,95334.03
2022-08-30T17:21:58.445Z,95338.19
2022-08-30T17:24:27.433Z,95328.72
2022-08-30T17:26:56.354Z,95340.38
2022-08-30T17:29:28.455Z,95344.41
2022-08-30T17:31:57.516Z,95350.81
2022-08-30T17:34:28.641Z,95346.28
2022-08-30T17:36:59.920Z,95343.53
2022-08-30T17:39:29.368Z,95346.19
2022-08-30T17:41:58.340Z,95344.19
2022-08-30T17:44:29.177Z,95347.31
2022-08-30T17:46:59.696Z,95349.22
2022-08-30T17:49:29.374Z,95355.75
2022-08-30T17:51:58.637Z,95349.19
2022-08-30T17:54:27.194Z,95356.38
2022-08-30T17:56:56.174Z,95362.44
2022-08-30T18:02:15.700Z,95363.59
2022-08-30T18:04:50.352Z,95363.97
2022-08-30T18:07:20.756Z,95369.22
2022-08-30T18:09:50.954Z,95370.06
2022-08-30T18:12:19.625Z,95370.63
2022-08-30T18:14:52.807Z,95366.44
2022-08-30T18:17:23.878Z,95376.31
2022-08-30T18:19:52.284Z,95372.97
2022-08-30T18:22:20.627Z,95377.31
2022-08-30T18:24:49.053Z,95378.53
2022-08-30T18:27:17.524Z,95381.97
2022-08-30T18:29:46.005Z,95380.63
2022-08-30T18:32:14.554Z,95377.94
2022-08-30T18:34:44.429Z,95374.53
2022-08-30T18:37:13.884Z,95362.63
2022-08-30T18:39:45.601Z,95374.94
2022-08-30T18:42:15.782Z,95376.47
2022-08-30T18:44:44.421Z,95364.94
2022-08-30T18:47:13.167Z,95383.47
2022-08-30T18:49:41.576Z,95379.25
2022-08-30T18:52:12.069Z,95377.28
2022-08-30T18:54:42.185Z,95373.38
2022-08-30T18:57:11.030Z,95375.66
2022-08-30T18:59:39.695Z,95386.63
2022-08-30T19:02:13.983Z,95379.81
2022-08-30T19:04:43.648Z,95380.25
2022-08-30T19:07:16.575Z,95373.53
2022-08-30T19:09:45.389Z,95387.88
2022-08-30T19:12:14.037Z,95384.00
2022-08-30T19:14:43.234Z,95382.97
2022-08-30T19:17:11.656Z,95385.91
2022-08-30T19:19:46.364Z,95385.72
2022-08-30T19:22:20.095Z,95388.94
2022-08-30T19:24:50.189Z,95389.44
2022-08-30T19:27:21.437Z,95389.38
2022-08-30T19:29:53.056Z,95385.13
2022-08-30T19:32:22.382Z,95385.75
2022-08-30T19:34:51.007Z,95381.19
2022-08-30T19:37:22.177Z,95385.13
2022-08-30T19:39:50.743Z,95380.31
2022-08-30T19:42:20.380Z,95380.44
2022-08-30T19:44:51.530Z,95381.84
2022-08-30T19:47:20.058Z,95384.06
2022-08-30T19:49:48.505Z,95381.03
2022-08-30T19:52:17.187Z,95381.78
2022-08-30T19:54:47.012Z,95376.84
2022-08-30T19:57:16.161Z,95375.88
2022-08-30T19:59:44.589Z,95379.44
2022-08-30T20:02:13.683Z,95371.84
2022-08-30T20:04:42.474Z,95375.66
2022-08-30T20:07:11.148Z,95351.59
2022-08-30T20:09:39.679Z,95378.44
2022-08-30T20:12:09.785Z,95375.47
2022-08-30T20:14:38.168Z,95378.28
2022-08-30T20:17:06.943Z,95375.22
2022-08-30T20:19:40.254Z,95378.28
2022-08-30T20:22:08.828Z,95347.06
2022-08-30T20:24:26.361Z,95366.94
2022-08-30T20:24:38.392Z,95380.78
2022-08-30T20:27:09.162Z,95384.81
2022-08-30T20:29:40.324Z,95387.41
2022-08-30T20:32:08.793Z,95382.44
2022-08-30T20:34:37.208Z,95381.97
2022-08-30T20:37:08.344Z,95391.38
2022-08-30T20:39:36.932Z,95390.75
2022-08-30T20:42:05.600Z,95383.06
2022-08-30T20:44:35.426Z,95389.38
2022-08-30T20:47:05.260Z,95381.34
2022-08-30T20:49:34.211Z,95371.31
2022-08-30T20:52:04.910Z,95370.28
2022-08-30T20:54:33.630Z,95376.50
2022-08-30T20:57:02.249Z,95369.19
2022-08-30T20:59:30.702Z,95379.13
2022-08-30T21:02:01.591Z,95374.19
2022-08-30T21:04:31.824Z,95370.78
2022-08-30T21:07:00.924Z,95297.94
2022-08-30T21:09:29.345Z,95381.22
2022-08-30T21:11:57.740Z,95383.38
2022-08-30T21:14:26.161Z,95372.91
2022-08-30T21:16:54.650Z,95373.66
2022-08-30T21:19:24.628Z,95380.66
2022-08-30T21:21:53.044Z,95371.66
2022-08-30T21:24:22.513Z,95372.25
2022-08-30T21:26:51.849Z,95374.59
2022-08-30T21:29:20.229Z,95381.09
2022-08-30T21:31:48.624Z,95364.72
2022-08-30T21:34:17.421Z,95350.56
2022-08-30T21:36:47.018Z,95368.31
2022-08-30T21:39:21.159Z,95383.72
2022-08-30T21:41:50.342Z,95380.44
2022-08-30T21:44:22.277Z,95388.25
2022-08-30T21:46:52.966Z,95392.06
2022-08-30T21:49:23.040Z,95386.09
2022-08-30T21:51:55.474Z,95386.03
2022-08-30T21:54:25.649Z,95382.88
2022-08-30T21:57:01.957Z,95385.94
2022-08-30T21:59:30.396Z,95373.81
2022-08-30T22:02:01.380Z,95373.44
2022-08-30T22:04:29.874Z,95378.81
2022-08-30T22:07:00.338Z,95365.03
2022-08-30T22:09:28.693Z,95365.38
2022-08-30T22:11:57.084Z,95359.31
2022-08-30T22:14:26.813Z,95363.81
2022-08-30T22:16:55.583Z,95356.72
2022-08-30T22:19:24.493Z,95356.59
2022-08-30T22:21:53.802Z,95362.41
2022-08-30T22:24:32.394Z,95352.34
2022-08-30T22:27:02.362Z,95356.06
2022-08-30T22:29:30.978Z,95360.22
2022-08-30T22:31:59.760Z,95304.88
2022-08-30T22:34:28.319Z,95354.78
2022-08-30T22:36:56.801Z,95343.25
2022-08-30T22:39:25.632Z,95349.75
2022-08-30T22:41:55.465Z,95351.88
2022-08-30T22:44:23.844Z,95354.22
2022-08-30T22:46:52.250Z,95342.97
2022-08-30T22:49:20.626Z,95343.50
2022-08-30T22:51:48.957Z,95349.75
2022-08-30T22:54:17.638Z,95310.78
2022-08-30T22:56:46.828Z,95347.13
2022-08-30T22:59:16.700Z,95339.56
2022-08-30T23:01:47.146Z,95345.66
2022-08-30T23:04:15.748Z,95339.63
2022-08-30T23:06:50.183Z,95347.06
2022-08-30T23:09:18.917Z,95331.75
2022-08-30T23:11:47.529Z,95331.94
2022-08-30T23:14:17.346Z,95333.63
2022-08-30T23:16:45.793Z,95337.50
2022-08-30T23:19:14.597Z,95277.66
2022-08-30T23:21:43.268Z,95337.28
2022-08-30T23:24:28.962Z,95341.44
2022-08-30T23:27:14.565Z,95343.00
2022-08-30T23:30:01.716Z,95341.41
2022-08-30T23:32:47.174Z,95341.31
2022-08-30T23:35:33.244Z,95336.84
2022-08-30T23:38:21.819Z,95302.97
2022-08-30T23:41:07.724Z,95333.91
2022-08-30T23:43:54.110Z,95334.13
2022-08-30T23:46:41.921Z,95333.25
2022-08-30T23:49:27.861Z,95335.13
2022-08-30T23:52:13.807Z,95331.06
2022-08-30T23:54:59.345Z,95325.19
2022-08-30T23:57:45.837Z,95331.75
